createdAt,value
2022-12-25T00:01:23.480Z,0.43
2022-12-25T00:04:27.152Z,0.30
2022-12-25T00:07:31.042Z,0.50
2022-12-25T00:10:42.903Z,0.60
2022-12-25T00:13:49.713Z,0.20
2022-12-25T00:16:53.371Z,0.77
2022-12-25T00:19:57.097Z,0.38
2022-12-25T00:23:00.743Z,0.73
2022-12-25T00:26:09.123Z,0.85
2022-12-25T00:29:14.622Z,0.83
2022-12-25T00:32:18.229Z,0.23
2022-12-25T00:35:22.224Z,0.50
2022-12-25T00:38:25.757Z,0.45
2022-12-25T00:41:44.542Z,0.30
2022-12-25T00:44:48.610Z,1.03
2022-12-25T00:47:52.070Z,0.90
2022-12-25T00:50:57.385Z,0.15
2022-12-25T00:54:01.453Z,0.20
2022-12-25T00:57:06.700Z,0.30
2022-12-25T01:00:12.002Z,0.50
2022-12-25T01:03:16.515Z,0.20
2022-12-25T01:06:20.123Z,0.60
2022-12-25T01:09:40.945Z,0.50
2022-12-25T01:12:45.860Z,0.82
2022-12-25T01:15:49.921Z,0.63
2022-12-25T01:18:53.791Z,0.27
2022-12-25T01:21:57.341Z,0.88
2022-12-25T01:25:00.989Z,0.40
2022-12-25T01:28:06.348Z,0.98
2022-12-25T01:31:12.163Z,0.50
2022-12-25T01:34:15.677Z,0.27
2022-12-25T01:37:19.842Z,0.93
2022-12-25T01:40:23.801Z,0.65
2022-12-25T01:43:33.330Z,0.73
2022-12-25T01:46:37.311Z,0.27
2022-12-25T01:49:46.415Z,0.53
2022-12-25T01:52:51.855Z,0.70
2022-12-25T01:56:03.778Z,0.30
2022-12-25T01:59:12.018Z,0.22
2022-12-25T02:02:16.686Z,0.63
2022-12-25T02:05:27.843Z,0.30
2022-12-25T02:08:34.118Z,1.15
2022-12-25T02:11:55.915Z,0.55
2022-12-25T02:15:06.107Z,0.95
2022-12-25T02:18:19.391Z,0.40
2022-12-25T02:21:53.346Z,1.00
2022-12-25T02:25:19.593Z,1.15
2022-12-25T02:28:31.993Z,0.40
2022-12-25T02:31:45.080Z,0.50
2022-12-25T02:34:57.070Z,1.03
2022-12-25T02:38:08.052Z,0.47
2022-12-25T02:41:17.771Z,0.28
2022-12-25T02:44:44.247Z,0.50
2022-12-25T02:48:05.633Z,0.60
2022-12-25T02:51:32.276Z,0.40
2022-12-25T02:55:02.887Z,0.10
2022-12-25T02:58:30.545Z,0.70
2022-12-25T03:02:02.237Z,0.50
2022-12-25T03:05:30.257Z,1.00
2022-12-25T03:08:45.582Z,0.20
2022-12-25T03:11:54.503Z,0.53
2022-12-25T03:15:15.914Z,1.08
2022-12-25T03:18:28.341Z,0.68
2022-12-25T03:21:52.117Z,0.90
2022-12-25T03:25:13.163Z,0.13
2022-12-25T03:28:17.104Z,0.80
2022-12-25T03:31:29.167Z,0.30
2022-12-25T03:35:06.510Z,0.47
2022-12-25T03:38:46.357Z,0.28
2022-12-25T03:42:15.436Z,0.60
2022-12-25T03:45:47.467Z,0.93
2022-12-25T03:49:21.382Z,0.47
2022-12-25T03:52:48.518Z,0.77
2022-12-25T03:56:12.038Z,0.47
2022-12-25T03:59:46.175Z,0.50
2022-12-25T04:03:07.293Z,0.27
2022-12-25T04:06:28.268Z,0.10
2022-12-25T04:09:51.044Z,0.38
2022-12-25T04:13:08.529Z,0.40
2022-12-25T04:16:29.723Z,0.30
2022-12-25T04:19:50.528Z,0.13
2022-12-25T04:23:12.468Z,0.22
2022-12-25T04:26:34.628Z,0.40
2022-12-25T04:29:56.406Z,0.52
2022-12-25T04:33:17.766Z,0.27
2022-12-25T04:36:22.591Z,0.20
2022-12-25T04:39:26.283Z,0.55
2022-12-25T04:42:31.451Z,1.02
2022-12-25T04:45:34.882Z,0.40
2022-12-25T04:48:39.176Z,0.50
2022-12-25T04:51:42.784Z,0.63
2022-12-25T04:54:46.591Z,0.20
2022-12-25T04:57:51.400Z,0.50
2022-12-25T05:00:55.299Z,0.57
2022-12-25T05:03:58.961Z,0.50
2022-12-25T05:07:02.932Z,0.77
2022-12-25T05:10:07.799Z,0.40
2022-12-25T05:13:12.946Z,0.88
2022-12-25T05:16:19.605Z,0.50
2022-12-25T05:19:23.798Z,1.37
2022-12-25T05:22:27.511Z,0.10
2022-12-25T05:25:31.819Z,1.13
2022-12-25T05:28:36.999Z,0.40
2022-12-25T05:31:40.834Z,0.20
2022-12-25T05:34:44.513Z,0.93
2022-12-25T05:37:48.436Z,0.20
2022-12-25T05:40:52.954Z,0.30
2022-12-25T05:43:58.343Z,0.47
2022-12-25T05:47:01.687Z,0.20
2022-12-25T05:50:07.651Z,0.67
2022-12-25T05:53:14.628Z,0.90
2022-12-25T05:56:18.902Z,0.32
2022-12-25T05:59:23.704Z,0.60
2022-12-25T06:02:29.558Z,0.35
2022-12-25T06:05:33.243Z,0.67
2022-12-25T06:08:37.301Z,0.50
2022-12-25T06:11:41.531Z,0.47
2022-12-25T06:14:46.590Z,0.50
2022-12-25T06:17:49.905Z,0.70
2022-12-25T06:20:53.815Z,0.47
2022-12-25T06:23:57.366Z,0.57
2022-12-25T06:27:01.132Z,0.25
2022-12-25T06:30:08.066Z,0.32
2022-12-25T06:33:12.056Z,0.30
2022-12-25T06:36:20.739Z,0.30
2022-12-25T06:39:25.755Z,0.30
2022-12-25T06:42:29.742Z,0.40
2022-12-25T06:45:37.234Z,0.10
2022-12-25T06:48:47.878Z,0.40
2022-12-25T06:51:51.916Z,0.50
2022-12-25T06:54:55.245Z,0.30
2022-12-25T06:57:59.213Z,0.47
2022-12-25T07:01:15.059Z,0.20
2022-12-25T07:04:28.585Z,0.50
2022-12-25T07:07:31.909Z,0.40
2022-12-25T07:10:35.718Z,1.30
2022-12-25T07:13:39.317Z,0.35
2022-12-25T07:16:45.715Z,0.47
2022-12-25T07:19:50.217Z,0.57
2022-12-25T07:22:54.195Z,0.30
2022-12-25T07:26:00.021Z,0.20
2022-12-25T07:29:04.113Z,0.20
2022-12-25T07:32:09.337Z,0.10
2022-12-25T07:35:12.943Z,0.38
2022-12-25T07:38:16.505Z,0.33
2022-12-25T07:41:20.629Z,0.30
2022-12-25T07:44:24.746Z,0.68
2022-12-25T07:47:29.710Z,0.43
2022-12-25T07:50:33.042Z,0.45
2022-12-25T07:53:38.625Z,0.60
2022-12-25T07:56:41.919Z,0.43
2022-12-25T07:59:45.725Z,0.38
2022-12-25T08:02:52.043Z,0.50
2022-12-25T08:05:55.819Z,0.17
2022-12-25T08:09:05.611Z,0.70
2022-12-25T08:12:09.300Z,0.13
2022-12-25T08:15:13.850Z,0.65
2022-12-25T08:18:18.839Z,0.40
2022-12-25T08:21:23.016Z,0.47
2022-12-25T08:24:26.705Z,0.50
2022-12-25T08:27:29.992Z,0.33
2022-12-25T08:30:33.691Z,0.30
2022-12-25T08:33:39.150Z,0.50
2022-12-25T08:36:42.899Z,0.77
2022-12-25T08:39:46.191Z,1.00
2022-12-25T08:42:49.821Z,0.40
2022-12-25T08:45:53.473Z,0.20
2022-12-25T08:48:58.820Z,0.57
2022-12-25T08:52:02.215Z,0.90
2022-12-25T08:55:08.337Z,0.60
2022-12-25T08:58:12.742Z,1.20
2022-12-25T09:01:16.887Z,0.55
2022-12-25T09:04:21.847Z,0.22
2022-12-25T09:07:25.357Z,0.75
2022-12-25T09:10:29.761Z,0.47
2022-12-25T09:13:33.527Z,0.67
2022-12-25T09:16:37.251Z,0.30
2022-12-25T09:19:42.168Z,0.73
2022-12-25T09:22:45.632Z,0.65
2022-12-25T09:25:49.427Z,0.50
2022-12-25T09:28:52.933Z,0.67
2022-12-25T09:31:56.851Z,0.70
2022-12-25T09:35:01.589Z,0.17
2022-12-25T09:38:05.696Z,1.17
2022-12-25T09:41:18.060Z,0.67
2022-12-25T09:44:27.580Z,1.47
2022-12-25T09:47:35.025Z,1.40
2022-12-25T09:50:48.529Z,1.73
2022-12-25T09:54:01.765Z,0.75
2022-12-25T09:57:06.673Z,1.00
2022-12-25T10:00:23.327Z,1.53
2022-12-25T10:04:02.760Z,0.80
2022-12-25T10:07:19.858Z,1.05
2022-12-25T10:10:46.641Z,2.10
2022-12-25T10:14:11.716Z,2.33
2022-12-25T10:17:36.416Z,2.97
2022-12-25T10:20:50.980Z,3.80
2022-12-25T10:24:12.270Z,1.95
2022-12-25T10:27:21.707Z,2.30
2022-12-25T10:30:29.758Z,2.27
2022-12-25T10:33:33.144Z,1.67
2022-12-25T10:36:36.805Z,2.22
2022-12-25T10:39:46.663Z,1.52
2022-12-25T10:42:57.206Z,3.17
2022-12-25T10:46:00.797Z,1.87
2022-12-25T10:49:05.348Z,2.47
2022-12-25T10:52:25.185Z,2.00
2022-12-25T10:55:30.336Z,1.13
2022-12-25T10:58:35.650Z,1.83
2022-12-25T11:01:39.367Z,1.43
2022-12-25T11:04:43.379Z,1.00
2022-12-25T11:07:51.305Z,1.02
2022-12-25T11:10:59.575Z,1.17
2022-12-25T11:14:04.808Z,1.50
2022-12-25T11:17:10.503Z,2.20
2022-12-25T11:20:26.317Z,1.70
2022-12-25T11:23:33.278Z,2.10
2022-12-25T11:26:49.777Z,1.80
2022-12-25T11:29:59.639Z,1.70
2022-12-25T11:33:09.057Z,0.90
2022-12-25T11:36:22.517Z,1.60
2022-12-25T11:39:30.971Z,1.33
2022-12-25T11:42:40.504Z,1.23
2022-12-25T11:45:52.951Z,0.70
2022-12-25T11:49:03.176Z,1.03
2022-12-25T11:52:08.892Z,1.70
2022-12-25T11:55:22.838Z,0.85
2022-12-25T11:58:36.881Z,0.88
2022-12-25T12:01:47.922Z,1.27
2022-12-25T12:05:08.069Z,1.03
2022-12-25T12:08:13.857Z,0.63
2022-12-25T12:11:22.938Z,1.70
2022-12-25T12:14:47.653Z,1.02
2022-12-25T12:17:51.291Z,1.23
2022-12-25T12:21:05.912Z,1.10
2022-12-25T12:24:16.080Z,1.42
2022-12-25T12:27:28.075Z,1.95
2022-12-25T12:30:36.332Z,0.60
2022-12-25T12:33:45.091Z,1.17
2022-12-25T12:36:50.118Z,1.20
2022-12-25T12:39:56.507Z,0.35
2022-12-25T12:43:00.553Z,0.70
2022-12-25T12:46:17.924Z,1.17
2022-12-25T12:49:28.824Z,1.60
2022-12-25T12:52:35.953Z,1.13
2022-12-25T12:55:39.751Z,1.42
2022-12-25T12:58:49.899Z,0.55
2022-12-25T13:02:21.506Z,0.63
2022-12-25T13:05:39.077Z,0.95
2022-12-25T13:09:04.502Z,0.93
2022-12-25T13:12:09.851Z,0.85
2022-12-25T13:15:15.641Z,0.25
2022-12-25T13:18:21.567Z,0.60
2022-12-25T13:21:29.635Z,0.73
2022-12-25T13:24:36.315Z,0.83
2022-12-25T13:27:40.141Z,0.55
2022-12-25T13:30:43.960Z,1.15
2022-12-25T13:33:58.108Z,9.95
2022-12-25T13:37:09.963Z,5.07
2022-12-25T13:40:25.996Z,3.20
2022-12-25T13:43:30.479Z,3.42
2022-12-25T13:46:34.302Z,2.30
2022-12-25T13:49:38.886Z,5.95
2022-12-25T13:52:43.989Z,3.20
2022-12-25T13:55:54.560Z,2.30
2022-12-25T13:58:58.324Z,2.63
2022-12-25T14:02:01.829Z,1.73
2022-12-25T14:05:28.291Z,1.85
2022-12-25T14:08:36.292Z,1.02
2022-12-25T14:11:43.052Z,1.10
2022-12-25T14:14:46.679Z,2.25
2022-12-25T14:17:52.864Z,1.38
2022-12-25T14:21:03.420Z,3.25
2022-12-25T14:24:14.987Z,1.63
2022-12-25T14:27:22.096Z,1.23
2022-12-25T14:30:29.923Z,2.55
2022-12-25T14:33:40.296Z,2.40
2022-12-25T14:36:46.198Z,1.67
2022-12-25T14:39:58.376Z,1.50
2022-12-25T14:43:05.834Z,2.53
2022-12-25T14:46:09.308Z,2.10
2022-12-25T14:49:25.943Z,1.58
2022-12-25T14:52:43.502Z,2.05
2022-12-25T14:55:50.634Z,2.10
2022-12-25T14:58:57.502Z,1.50
2022-12-25T15:02:02.190Z,0.70
2022-12-25T15:05:06.434Z,1.92
2022-12-25T15:08:26.484Z,1.70
2022-12-25T15:11:31.388Z,2.05
2022-12-25T15:14:38.690Z,1.40
2022-12-25T15:17:42.840Z,1.52
2022-12-25T15:20:46.767Z,2.47
2022-12-25T15:23:51.394Z,2.53
2022-12-25T15:26:55.469Z,1.60
2022-12-25T15:30:14.470Z,2.40
2022-12-25T15:33:20.501Z,2.00
2022-12-25T15:36:25.369Z,1.75
2022-12-25T15:39:31.042Z,1.60
2022-12-25T15:42:34.401Z,2.15
2022-12-25T15:45:38.375Z,2.23
2022-12-25T15:48:41.689Z,1.88
2022-12-25T15:51:47.410Z,1.52
2022-12-25T15:54:54.126Z,1.77
2022-12-25T15:57:58.272Z,2.03
2022-12-25T16:01:01.672Z,1.80
2022-12-25T16:04:05.961Z,0.98
2022-12-25T16:07:15.732Z,2.03
2022-12-25T16:10:22.766Z,1.73
2022-12-25T16:13:26.102Z,2.58
2022-12-25T16:16:30.205Z,1.83
2022-12-25T16:19:34.081Z,1.13
2022-12-25T16:22:40.939Z,1.38
2022-12-25T16:25:46.094Z,2.15
2022-12-25T16:28:49.930Z,0.93
2022-12-25T16:31:53.308Z,1.53
2022-12-25T16:34:57.219Z,1.63
2022-12-25T16:38:00.681Z,1.75
2022-12-25T16:41:06.395Z,1.48
2022-12-25T16:44:11.073Z,1.33
2022-12-25T16:47:15.275Z,2.03
2022-12-25T16:50:18.870Z,1.20
2022-12-25T16:53:22.936Z,1.40
2022-12-25T16:56:28.489Z,2.35
2022-12-25T16:59:33.108Z,2.08
2022-12-25T17:02:36.726Z,1.80
2022-12-25T17:05:40.676Z,1.13
2022-12-25T17:08:45.214Z,1.63
2022-12-25T17:11:50.238Z,1.77
2022-12-25T17:14:53.982Z,2.25
2022-12-25T17:17:57.669Z,1.67
2022-12-25T17:21:01.104Z,1.33
2022-12-25T17:24:07.177Z,1.20
2022-12-25T17:27:12.220Z,1.73
2022-12-25T17:30:16.276Z,2.00
2022-12-25T17:33:19.775Z,1.23
2022-12-25T17:36:24.170Z,1.92
2022-12-25T17:39:27.548Z,1.17
2022-12-25T17:42:32.712Z,2.72
2022-12-25T17:45:37.836Z,1.52
2022-12-25T17:48:41.766Z,1.17
2022-12-25T17:51:46.020Z,1.42
2022-12-25T17:54:49.871Z,2.30
2022-12-25T17:57:54.709Z,1.13
2022-12-25T18:00:59.015Z,1.13
2022-12-25T18:04:03.237Z,1.10
2022-12-25T18:07:06.828Z,3.15
2022-12-25T18:10:11.128Z,1.35
2022-12-25T18:13:16.249Z,2.08
2022-12-25T18:16:23.192Z,0.82
2022-12-25T18:19:26.977Z,1.70
2022-12-25T18:22:30.558Z,1.17
2022-12-25T18:25:34.787Z,1.60
2022-12-25T18:28:42.330Z,2.25
2022-12-25T18:31:46.380Z,1.52
2022-12-25T18:34:54.524Z,1.53
2022-12-25T18:37:58.238Z,2.05
2022-12-25T18:41:04.922Z,1.13
2022-12-25T18:44:09.981Z,1.20
2022-12-25T18:47:13.344Z,2.17
2022-12-25T18:50:17.298Z,0.80
2022-12-25T18:53:20.690Z,1.60
2022-12-25T18:56:24.793Z,0.77
2022-12-25T18:59:30.782Z,1.30
2022-12-25T19:02:35.042Z,1.50
2022-12-25T19:05:40.301Z,2.40
2022-12-25T19:08:44.031Z,1.50
2022-12-25T19:11:47.524Z,2.70
2022-12-25T19:14:52.845Z,1.58
2022-12-25T19:17:56.419Z,2.58
2022-12-25T19:21:03.219Z,1.47
2022-12-25T19:24:07.173Z,1.38
2022-12-25T19:27:11.261Z,2.80
2022-12-25T19:30:16.344Z,2.20
2022-12-25T19:33:20.726Z,2.72
2022-12-25T19:36:23.911Z,1.87
2022-12-25T19:39:27.629Z,1.93
2022-12-25T19:42:30.952Z,1.60
2022-12-25T19:45:36.081Z,1.33
2022-12-25T19:48:39.443Z,1.90
2022-12-25T19:51:47.053Z,1.07
2022-12-25T19:54:52.706Z,1.57
2022-12-25T19:57:59.243Z,1.48
2022-12-25T20:01:08.727Z,1.60
2022-12-25T20:04:12.897Z,3.30
2022-12-25T20:07:16.223Z,1.60
2022-12-25T20:10:19.977Z,2.43
2022-12-25T20:13:24.093Z,2.13
2022-12-25T20:16:29.476Z,1.63
2022-12-25T20:19:33.140Z,2.35
2022-12-25T20:22:36.996Z,1.80
2022-12-25T20:25:41.842Z,1.90
2022-12-25T20:28:46.393Z,1.45
2022-12-25T20:31:51.362Z,2.33
2022-12-25T20:34:55.256Z,1.50
2022-12-25T20:37:58.504Z,1.63
2022-12-25T20:44:28.277Z,1.55
2022-12-25T20:47:33.200Z,1.73
2022-12-25T20:50:36.485Z,1.88
2022-12-25T20:53:40.430Z,2.03
2022-12-25T20:56:43.957Z,2.80
2022-12-25T20:59:47.389Z,1.65
2022-12-25T21:02:52.674Z,2.88
2022-12-25T21:05:57.971Z,1.80
2022-12-25T21:09:04.022Z,1.97
2022-12-25T21:12:08.993Z,2.25
2022-12-25T21:15:15.660Z,1.70
2022-12-25T21:18:23.425Z,2.38
2022-12-25T21:21:26.821Z,1.70
2022-12-25T21:24:30.626Z,3.03
2022-12-25T21:27:34.263Z,1.83
2022-12-25T21:30:38.564Z,1.70
2022-12-25T21:33:51.397Z,3.38
2022-12-25T21:36:55.042Z,1.98
2022-12-25T21:39:58.349Z,1.83
2022-12-25T21:43:02.159Z,2.63
2022-12-25T21:46:09.033Z,2.05
2022-12-25T21:49:33.922Z,2.30
2022-12-25T21:52:36.485Z,1.48
2022-12-25T21:55:39.931Z,3.13
2022-12-25T21:58:43.806Z,1.90
2022-12-25T22:01:49.113Z,1.80
2022-12-25T22:04:54.089Z,2.00
2022-12-25T22:07:57.201Z,2.38
2022-12-25T22:11:05.010Z,2.80
2022-12-25T22:14:52.990Z,3.00
2022-12-25T22:18:14.734Z,1.75
2022-12-25T22:21:23.179Z,1.90
2022-12-25T22:24:26.455Z,2.20
2022-12-25T22:27:34.590Z,0.73
2022-12-25T22:30:38.256Z,1.80
2022-12-25T22:33:41.735Z,1.60
2022-12-25T22:36:46.609Z,2.10
2022-12-25T22:39:50.218Z,1.35
2022-12-25T22:42:55.738Z,1.13
2022-12-25T22:46:00.191Z,1.05
2022-12-25T22:49:03.721Z,2.15
2022-12-25T22:52:09.801Z,1.98
2022-12-25T22:55:16.623Z,1.60
2022-12-25T22:58:20.121Z,1.20
2022-12-25T23:01:23.494Z,1.45
2022-12-25T23:04:27.086Z,1.27
2022-12-25T23:07:31.908Z,1.88
2022-12-25T23:10:35.408Z,1.35
2022-12-25T23:13:56.636Z,1.93
2022-12-25T23:17:01.137Z,2.08
2022-12-25T23:20:23.999Z,2.78
2022-12-25T23:23:46.227Z,1.63
2022-12-25T23:26:49.434Z,1.83
2022-12-25T23:29:52.923Z,1.47
2022-12-25T23:32:56.352Z,1.65
2022-12-25T23:36:00.013Z,2.05
2022-12-25T23:39:09.994Z,1.48
2022-12-25T23:42:13.917Z,1.95
2022-12-25T23:45:17.463Z,2.27
2022-12-25T23:48:20.966Z,1.15
2022-12-25T23:51:24.384Z,2.60
2022-12-25T23:54:32.176Z,1.75
2022-12-25T23:57:35.670Z,1.23
